sensor_id;sensor_type;location;lat;lon;timestamp;P1;durP1;ratioP1;P2;durP2;ratioP2
68484;SDS011;55472;50.060;21.960;2023-07-29T00:01:35;5.82;;;2.15;;
68484;SDS011;55472;50.060;21.960;2023-07-29T00:04:02;4.75;;;2.00;;
68484;SDS011;55472;50.060;21.960;2023-07-29T00:06:30;5.03;;;2.00;;
68484;SDS011;55472;50.060;21.960;2023-07-29T00:08:56;6.03;;;2.25;;
68484;SDS011;55472;50.060;21.960;2023-07-29T00:11:22;4.50;;;2.10;;
68484;SDS011;55472;50.060;21.960;2023-07-29T00:13:48;5.97;;;2.28;;
68484;SDS011;55472;50.060;21.960;2023-07-29T00:16:15;7.28;;;2.67;;
68484;SDS011;55472;50.060;21.960;2023-07-29T00:18:43;5.30;;;2.50;;
68484;SDS011;55472;50.060;21.960;2023-07-29T00:21:09;6.03;;;2.23;;
68484;SDS011;55472;50.060;21.960;2023-07-29T00:23:36;5.05;;;2.38;;
68484;SDS011;55472;50.060;21.960;2023-07-29T00:26:01;4.13;;;2.00;;
68484;SDS011;55472;50.060;21.960;2023-07-29T00:28:28;6.53;;;2.42;;
68484;SDS011;55472;50.060;21.960;2023-07-29T00:30:54;6.78;;;2.40;;
68484;SDS011;55472;50.060;21.960;2023-07-29T00:33:21;5.40;;;2.40;;
68484;SDS011;55472;50.060;21.960;2023-07-29T00:35:47;5.22;;;2.50;;
68484;SDS011;55472;50.060;21.960;2023-07-29T00:38:13;4.95;;;2.38;;
68484;SDS011;55472;50.060;21.960;2023-07-29T00:40:39;4.72;;;2.50;;
68484;SDS011;55472;50.060;21.960;2023-07-29T00:43:05;4.70;;;2.50;;
68484;SDS011;55472;50.060;21.960;2023-07-29T00:45:32;5.43;;;2.70;;
68484;SDS011;55472;50.060;21.960;2023-07-29T00:47:59;5.15;;;2.25;;
68484;SDS011;55472;50.060;21.960;2023-07-29T00:50:27;7.22;;;2.60;;
68484;SDS011;55472;50.060;21.960;2023-07-29T00:52:54;5.22;;;2.60;;
68484;SDS011;55472;50.060;21.960;2023-07-29T00:55:21;4.40;;;2.40;;
68484;SDS011;55472;50.060;21.960;2023-07-29T00:57:48;6.63;;;2.80;;
68484;SDS011;55472;50.060;21.960;2023-07-29T01:00:17;4.15;;;2.20;;
68484;SDS011;55472;50.060;21.960;2023-07-29T01:02:43;6.07;;;2.50;;
68484;SDS011;55472;50.060;21.960;2023-07-29T01:05:14;7.03;;;2.25;;
68484;SDS011;55472;50.060;21.960;2023-07-29T01:13:44;6.80;;;2.35;;
68484;SDS011;55472;50.060;21.960;2023-07-29T01:16:21;6.65;;;2.70;;
68484;SDS011;55472;50.060;21.960;2023-07-29T01:18:56;5.45;;;2.60;;
68484;SDS011;55472;50.060;21.960;2023-07-29T01:21:25;6.93;;;2.70;;
68484;SDS011;55472;50.060;21.960;2023-07-29T01:23:53;5.83;;;2.80;;
68484;SDS011;55472;50.060;21.960;2023-07-29T01:26:23;5.93;;;3.28;;
68484;SDS011;55472;50.060;21.960;2023-07-29T01:28:50;5.75;;;2.80;;
68484;SDS011;55472;50.060;21.960;2023-07-29T01:31:22;5.75;;;2.50;;
68484;SDS011;55472;50.060;21.960;2023-07-29T01:33:59;6.43;;;2.72;;
68484;SDS011;55472;50.060;21.960;2023-07-29T01:36:35;6.90;;;2.90;;
68484;SDS011;55472;50.060;21.960;2023-07-29T01:39:06;6.00;;;3.05;;
68484;SDS011;55472;50.060;21.960;2023-07-29T01:41:34;5.78;;;2.95;;
68484;SDS011;55472;50.060;21.960;2023-07-29T01:44:00;5.20;;;2.70;;
68484;SDS011;55472;50.060;21.960;2023-07-29T01:46:27;6.00;;;2.50;;
68484;SDS011;55472;50.060;21.960;2023-07-29T01:48:53;4.63;;;2.50;;
68484;SDS011;55472;50.060;21.960;2023-07-29T01:51:19;5.43;;;2.63;;
68484;SDS011;55472;50.060;21.960;2023-07-29T01:53:46;5.95;;;2.95;;
68484;SDS011;55472;50.060;21.960;2023-07-29T01:56:12;4.97;;;2.67;;
68484;SDS011;55472;50.060;21.960;2023-07-29T01:58:38;6.90;;;2.60;;
68484;SDS011;55472;50.060;21.960;2023-07-29T02:01:04;5.18;;;2.90;;
68484;SDS011;55472;50.060;21.960;2023-07-29T02:03:31;8.05;;;2.80;;
68484;SDS011;55472;50.060;21.960;2023-07-29T02:05:57;5.30;;;2.78;;
68484;SDS011;55472;50.060;21.960;2023-07-29T02:08:23;6.13;;;2.40;;
68484;SDS011;55472;50.060;21.960;2023-07-29T02:10:49;4.87;;;2.40;;
68484;SDS011;55472;50.060;21.960;2023-07-29T02:13:15;7.03;;;2.67;;
68484;SDS011;55472;50.060;21.960;2023-07-29T02:15:41;5.65;;;2.30;;
68484;SDS011;55472;50.060;21.960;2023-07-29T02:18:07;5.03;;;2.75;;
68484;SDS011;55472;50.060;21.960;2023-07-29T02:20:33;10.90;;;2.53;;
68484;SDS011;55472;50.060;21.960;2023-07-29T02:23:00;5.50;;;2.47;;
68484;SDS011;55472;50.060;21.960;2023-07-29T02:25:26;6.88;;;2.70;;
68484;SDS011;55472;50.060;21.960;2023-07-29T02:27:52;5.85;;;2.47;;
68484;SDS011;55472;50.060;21.960;2023-07-29T02:30:18;5.35;;;2.40;;
68484;SDS011;55472;50.060;21.960;2023-07-29T02:32:44;6.53;;;2.45;;
68484;SDS011;55472;50.060;21.960;2023-07-29T02:35:11;6.03;;;2.53;;
68484;SDS011;55472;50.060;21.960;2023-07-29T02:37:38;4.60;;;2.40;;
68484;SDS011;55472;50.060;21.960;2023-07-29T02:40:04;5.75;;;2.75;;
68484;SDS011;55472;50.060;21.960;2023-07-29T02:42:31;6.18;;;2.40;;
68484;SDS011;55472;50.060;21.960;2023-07-29T02:44:57;6.03;;;2.23;;
68484;SDS011;55472;50.060;21.960;2023-07-29T02:47:24;5.97;;;2.47;;
68484;SDS011;55472;50.060;21.960;2023-07-29T02:49:50;5.00;;;2.05;;
68484;SDS011;55472;50.060;21.960;2023-07-29T02:52:16;6.03;;;2.22;;
68484;SDS011;55472;50.060;21.960;2023-07-29T02:54:42;4.63;;;2.30;;
68484;SDS011;55472;50.060;21.960;2023-07-29T02:57:09;5.50;;;2.50;;
68484;SDS011;55472;50.060;21.960;2023-07-29T02:59:35;5.40;;;2.70;;
68484;SDS011;55472;50.060;21.960;2023-07-29T03:02:01;5.97;;;2.30;;
68484;SDS011;55472;50.060;21.960;2023-07-29T03:04:27;4.35;;;2.20;;
68484;SDS011;55472;50.060;21.960;2023-07-29T03:06:53;5.90;;;2.15;;
68484;SDS011;55472;50.060;21.960;2023-07-29T03:09:19;7.50;;;2.30;;
68484;SDS011;55472;50.060;21.960;2023-07-29T03:11:46;5.18;;;2.08;;
68484;SDS011;55472;50.060;21.960;2023-07-29T03:14:11;4.93;;;2.28;;
68484;SDS011;55472;50.060;21.960;2023-07-29T03:16:38;4.45;;;2.10;;
68484;SDS011;55472;50.060;21.960;2023-07-29T03:19:04;6.33;;;2.30;;
68484;SDS011;55472;50.060;21.960;2023-07-29T03:21:31;5.77;;;2.30;;
68484;SDS011;55472;50.060;21.960;2023-07-29T03:23:58;4.90;;;2.28;;
68484;SDS011;55472;50.060;21.960;2023-07-29T03:26:24;5.38;;;2.63;;
68484;SDS011;55472;50.060;21.960;2023-07-29T03:28:50;4.72;;;2.30;;
68484;SDS011;55472;50.060;21.960;2023-07-29T03:31:16;5.88;;;2.60;;
68484;SDS011;55472;50.060;21.960;2023-07-29T03:33:42;6.60;;;2.50;;
68484;SDS011;55472;50.060;21.960;2023-07-29T03:36:09;4.45;;;2.13;;
68484;SDS011;55472;50.060;21.960;2023-07-29T03:38:35;5.30;;;2.40;;
68484;SDS011;55472;50.060;21.960;2023-07-29T03:41:06;7.13;;;2.50;;
68484;SDS011;55472;50.060;21.960;2023-07-29T03:43:34;4.32;;;2.33;;
68484;SDS011;55472;50.060;21.960;2023-07-29T03:46:00;4.40;;;2.30;;
68484;SDS011;55472;50.060;21.960;2023-07-29T03:48:26;4.82;;;2.30;;
68484;SDS011;55472;50.060;21.960;2023-07-29T03:50:52;5.43;;;2.50;;
68484;SDS011;55472;50.060;21.960;2023-07-29T03:53:19;5.05;;;2.40;;
68484;SDS011;55472;50.060;21.960;2023-07-29T03:55:46;4.75;;;2.28;;
68484;SDS011;55472;50.060;21.960;2023-07-29T03:58:12;4.57;;;2.37;;
68484;SDS011;55472;50.060;21.960;2023-07-29T04:00:38;4.88;;;2.25;;
68484;SDS011;55472;50.060;21.960;2023-07-29T04:03:04;4.20;;;2.20;;
68484;SDS011;55472;50.060;21.960;2023-07-29T04:05:31;6.47;;;2.38;;
68484;SDS011;55472;50.060;21.960;2023-07-29T04:07:57;6.63;;;2.60;;
68484;SDS011;55472;50.060;21.960;2023-07-29T04:10:23;4.53;;;2.30;;
68484;SDS011;55472;50.060;21.960;2023-07-29T04:12:49;6.30;;;2.70;;
68484;SDS011;55472;50.060;21.960;2023-07-29T04:15:15;4.70;;;2.40;;
68484;SDS011;55472;50.060;21.960;2023-07-29T04:17:41;5.63;;;3.00;;
68484;SDS011;55472;50.060;21.960;2023-07-29T04:20:08;5.03;;;2.30;;
68484;SDS011;55472;50.060;21.960;2023-07-29T04:22:35;5.37;;;2.60;;
68484;SDS011;55472;50.060;21.960;2023-07-29T04:25:01;4.65;;;2.42;;
68484;SDS011;55472;50.060;21.960;2023-07-29T04:27:29;6.07;;;2.55;;
68484;SDS011;55472;50.060;21.960;2023-07-29T04:29:56;5.15;;;2.60;;
68484;SDS011;55472;50.060;21.960;2023-07-29T04:32:22;5.38;;;2.67;;
68484;SDS011;55472;50.060;21.960;2023-07-29T04:34:49;4.80;;;2.50;;
68484;SDS011;55472;50.060;21.960;2023-07-29T04:37:15;5.25;;;2.63;;
68484;SDS011;55472;50.060;21.960;2023-07-29T04:39:41;5.85;;;2.30;;
68484;SDS011;55472;50.060;21.960;2023-07-29T04:42:07;5.97;;;2.30;;
68484;SDS011;55472;50.060;21.960;2023-07-29T04:44:33;6.17;;;2.60;;
68484;SDS011;55472;50.060;21.960;2023-07-29T04:46:59;5.88;;;2.47;;
68484;SDS011;55472;50.060;21.960;2023-07-29T04:49:25;6.60;;;2.40;;
68484;SDS011;55472;50.060;21.960;2023-07-29T04:51:51;8.68;;;2.70;;
68484;SDS011;55472;50.060;21.960;2023-07-29T04:54:18;5.72;;;2.30;;
68484;SDS011;55472;50.060;21.960;2023-07-29T04:56:46;4.93;;;2.23;;
68484;SDS011;55472;50.060;21.960;2023-07-29T04:59:12;4.53;;;2.22;;
68484;SDS011;55472;50.060;21.960;2023-07-29T05:01:38;4.85;;;2.40;;
68484;SDS011;55472;50.060;21.960;2023-07-29T05:04:05;5.45;;;2.30;;
68484;SDS011;55472;50.060;21.960;2023-07-29T05:06:30;5.90;;;1.98;;
68484;SDS011;55472;50.060;21.960;2023-07-29T05:08:57;5.43;;;2.50;;
68484;SDS011;55472;50.060;21.960;2023-07-29T05:11:23;6.13;;;2.15;;
68484;SDS011;55472;50.060;21.960;2023-07-29T05:13:50;4.72;;;2.20;;
68484;SDS011;55472;50.060;21.960;2023-07-29T05:16:17;4.85;;;1.98;;
68484;SDS011;55472;50.060;21.960;2023-07-29T05:18:43;4.43;;;2.00;;
68484;SDS011;55472;50.060;21.960;2023-07-29T05:21:09;5.37;;;2.00;;
68484;SDS011;55472;50.060;21.960;2023-07-29T05:23:36;5.70;;;2.13;;
68484;SDS011;55472;50.060;21.960;2023-07-29T05:26:02;6.97;;;2.30;;
68484;SDS011;55472;50.060;21.960;2023-07-29T05:28:29;6.20;;;1.90;;
68484;SDS011;55472;50.060;21.960;2023-07-29T05:30:54;6.40;;;1.80;;
68484;SDS011;55472;50.060;21.960;2023-07-29T05:33:21;4.40;;;2.20;;
68484;SDS011;55472;50.060;21.960;2023-07-29T05:35:47;4.72;;;2.00;;
68484;SDS011;55472;50.060;21.960;2023-07-29T05:38:13;4.28;;;2.20;;
68484;SDS011;55472;50.060;21.960;2023-07-29T05:40:39;4.10;;;1.80;;
68484;SDS011;55472;50.060;21.960;2023-07-29T05:43:06;4.10;;;2.07;;
68484;SDS011;55472;50.060;21.960;2023-07-29T05:45:33;6.97;;;2.10;;
68484;SDS011;55472;50.060;21.960;2023-07-29T05:47:59;4.70;;;1.92;;
68484;SDS011;55472;50.060;21.960;2023-07-29T05:50:25;4.90;;;2.00;;
68484;SDS011;55472;50.060;21.960;2023-07-29T05:52:51;4.20;;;2.17;;
68484;SDS011;55472;50.060;21.960;2023-07-29T05:55:17;3.90;;;1.80;;
68484;SDS011;55472;50.060;21.960;2023-07-29T05:57:43;5.57;;;2.15;;
68484;SDS011;55472;50.060;21.960;2023-07-29T06:00:10;5.60;;;1.92;;
68484;SDS011;55472;50.060;21.960;2023-07-29T06:02:37;4.63;;;1.77;;
68484;SDS011;55472;50.060;21.960;2023-07-29T06:05:03;4.25;;;1.90;;
68484;SDS011;55472;50.060;21.960;2023-07-29T06:07:29;5.40;;;2.00;;
68484;SDS011;55472;50.060;21.960;2023-07-29T06:09:57;3.88;;;1.88;;
68484;SDS011;55472;50.060;21.960;2023-07-29T06:12:23;6.32;;;1.70;;
68484;SDS011;55472;50.060;21.960;2023-07-29T06:14:49;4.47;;;1.80;;
68484;SDS011;55472;50.060;21.960;2023-07-29T06:17:16;3.75;;;1.70;;
68484;SDS011;55472;50.060;21.960;2023-07-29T06:19:42;5.47;;;1.88;;
68484;SDS011;55472;50.060;21.960;2023-07-29T06:22:09;4.13;;;1.90;;
68484;SDS011;55472;50.060;21.960;2023-07-29T06:24:35;3.72;;;1.60;;
68484;SDS011;55472;50.060;21.960;2023-07-29T06:27:01;5.75;;;1.73;;
68484;SDS011;55472;50.060;21.960;2023-07-29T06:29:28;4.95;;;2.00;;
68484;SDS011;55472;50.060;21.960;2023-07-29T06:31:54;4.13;;;1.95;;
68484;SDS011;55472;50.060;21.960;2023-07-29T06:34:20;5.07;;;2.13;;
68484;SDS011;55472;50.060;21.960;2023-07-29T06:36:47;4.93;;;1.92;;
68484;SDS011;55472;50.060;21.960;2023-07-29T06:39:13;4.38;;;1.70;;
68484;SDS011;55472;50.060;21.960;2023-07-29T06:41:40;5.03;;;2.20;;
68484;SDS011;55472;50.060;21.960;2023-07-29T06:44:06;4.05;;;1.88;;
68484;SDS011;55472;50.060;21.960;2023-07-29T06:46:32;3.90;;;1.73;;
68484;SDS011;55472;50.060;21.960;2023-07-29T06:48:58;4.07;;;1.88;;
68484;SDS011;55472;50.060;21.960;2023-07-29T06:51:24;5.32;;;2.63;;
68484;SDS011;55472;50.060;21.960;2023-07-29T06:53:50;6.22;;;2.40;;
68484;SDS011;55472;50.060;21.960;2023-07-29T06:56:17;5.93;;;1.83;;
68484;SDS011;55472;50.060;21.960;2023-07-29T06:58:43;3.93;;;1.93;;
68484;SDS011;55472;50.060;21.960;2023-07-29T07:01:09;4.00;;;1.88;;
68484;SDS011;55472;50.060;21.960;2023-07-29T07:03:35;5.38;;;2.15;;
68484;SDS011;55472;50.060;21.960;2023-07-29T07:06:02;4.63;;;1.95;;
68484;SDS011;55472;50.060;21.960;2023-07-29T07:08:28;4.00;;;1.90;;
68484;SDS011;55472;50.060;21.960;2023-07-29T07:10:56;4.83;;;1.70;;
68484;SDS011;55472;50.060;21.960;2023-07-29T07:13:22;3.90;;;1.70;;
68484;SDS011;55472;50.060;21.960;2023-07-29T07:15:48;3.58;;;1.80;;
68484;SDS011;55472;50.060;21.960;2023-07-29T07:18:14;3.53;;;1.55;;
68484;SDS011;55472;50.060;21.960;2023-07-29T07:20:40;4.95;;;1.98;;
68484;SDS011;55472;50.060;21.960;2023-07-29T07:23:07;3.83;;;1.90;;
68484;SDS011;55472;50.060;21.960;2023-07-29T07:25:36;4.10;;;1.80;;
68484;SDS011;55472;50.060;21.960;2023-07-29T07:28:02;4.07;;;1.67;;
68484;SDS011;55472;50.060;21.960;2023-07-29T07:30:29;3.88;;;1.90;;
68484;SDS011;55472;50.060;21.960;2023-07-29T07:32:55;4.45;;;1.80;;
68484;SDS011;55472;50.060;21.960;2023-07-29T07:35:21;4.67;;;1.70;;
68484;SDS011;55472;50.060;21.960;2023-07-29T07:37:47;5.15;;;2.00;;
68484;SDS011;55472;50.060;21.960;2023-07-29T07:40:13;3.95;;;2.10;;
68484;SDS011;55472;50.060;21.960;2023-07-29T07:42:40;4.57;;;2.13;;
68484;SDS011;55472;50.060;21.960;2023-07-29T07:45:06;4.97;;;2.20;;
68484;SDS011;55472;50.060;21.960;2023-07-29T07:47:32;7.53;;;2.50;;
68484;SDS011;55472;50.060;21.960;2023-07-29T07:49:59;4.18;;;2.08;;
68484;SDS011;55472;50.060;21.960;2023-07-29T07:52:25;4.70;;;2.15;;
68484;SDS011;55472;50.060;21.960;2023-07-29T07:54:54;8.77;;;2.20;;
68484;SDS011;55472;50.060;21.960;2023-07-29T07:57:21;4.32;;;2.20;;
68484;SDS011;55472;50.060;21.960;2023-07-29T07:59:47;4.10;;;2.23;;
68484;SDS011;55472;50.060;21.960;2023-07-29T08:02:14;5.00;;;2.15;;
68484;SDS011;55472;50.060;21.960;2023-07-29T08:04:40;3.88;;;1.92;;
68484;SDS011;55472;50.060;21.960;2023-07-29T08:07:06;5.78;;;2.08;;
68484;SDS011;55472;50.060;21.960;2023-07-29T08:09:32;5.57;;;2.15;;
68484;SDS011;55472;50.060;21.960;2023-07-29T08:11:58;4.33;;;1.90;;
68484;SDS011;55472;50.060;21.960;2023-07-29T08:14:25;4.93;;;1.92;;
68484;SDS011;55472;50.060;21.960;2023-07-29T08:16:51;6.75;;;2.20;;
68484;SDS011;55472;50.060;21.960;2023-07-29T08:19:18;4.32;;;2.03;;
68484;SDS011;55472;50.060;21.960;2023-07-29T08:21:44;4.43;;;2.20;;
68484;SDS011;55472;50.060;21.960;2023-07-29T08:24:10;4.63;;;2.13;;
68484;SDS011;55472;50.060;21.960;2023-07-29T08:26:36;5.20;;;2.13;;
68484;SDS011;55472;50.060;21.960;2023-07-29T08:29:02;5.63;;;2.10;;
68484;SDS011;55472;50.060;21.960;2023-07-29T08:31:28;5.70;;;2.17;;
68484;SDS011;55472;50.060;21.960;2023-07-29T08:33:56;3.90;;;1.83;;
68484;SDS011;55472;50.060;21.960;2023-07-29T08:36:22;6.50;;;2.10;;
68484;SDS011;55472;50.060;21.960;2023-07-29T08:38:48;4.60;;;2.10;;
68484;SDS011;55472;50.060;21.960;2023-07-29T08:41:16;5.05;;;2.20;;
68484;SDS011;55472;50.060;21.960;2023-07-29T08:43:50;5.57;;;2.40;;
68484;SDS011;55472;50.060;21.960;2023-07-29T08:46:23;5.93;;;2.22;;
68484;SDS011;55472;50.060;21.960;2023-07-29T08:48:50;4.65;;;2.33;;
68484;SDS011;55472;50.060;21.960;2023-07-29T08:51:16;6.47;;;2.40;;
68484;SDS011;55472;50.060;21.960;2023-07-29T08:53:44;6.03;;;2.30;;
68484;SDS011;55472;50.060;21.960;2023-07-29T08:56:11;3.80;;;2.10;;
68484;SDS011;55472;50.060;21.960;2023-07-29T08:58:38;3.78;;;1.98;;
68484;SDS011;55472;50.060;21.960;2023-07-29T09:01:05;5.10;;;2.10;;
68484;SDS011;55472;50.060;21.960;2023-07-29T09:03:32;5.60;;;2.13;;
68484;SDS011;55472;50.060;21.960;2023-07-29T09:05:58;5.00;;;2.13;;
68484;SDS011;55472;50.060;21.960;2023-07-29T09:08:26;4.13;;;2.10;;
68484;SDS011;55472;50.060;21.960;2023-07-29T09:10:53;5.00;;;2.28;;
68484;SDS011;55472;50.060;21.960;2023-07-29T09:13:21;6.28;;;2.33;;
68484;SDS011;55472;50.060;21.960;2023-07-29T09:15:47;6.50;;;2.23;;
68484;SDS011;55472;50.060;21.960;2023-07-29T09:18:18;5.47;;;2.25;;
68484;SDS011;55472;50.060;21.960;2023-07-29T09:20:45;5.82;;;2.28;;
68484;SDS011;55472;50.060;21.960;2023-07-29T09:23:14;4.30;;;2.20;;
68484;SDS011;55472;50.060;21.960;2023-07-29T09:25:41;5.93;;;2.45;;
68484;SDS011;55472;50.060;21.960;2023-07-29T09:28:11;4.87;;;2.17;;
68484;SDS011;55472;50.060;21.960;2023-07-29T09:30:42;4.13;;;2.20;;
68484;SDS011;55472;50.060;21.960;2023-07-29T09:33:11;5.80;;;2.22;;
68484;SDS011;55472;50.060;21.960;2023-07-29T09:35:37;4.97;;;2.20;;
68484;SDS011;55472;50.060;21.960;2023-07-29T09:38:04;4.25;;;2.10;;
68484;SDS011;55472;50.060;21.960;2023-07-29T09:40:35;6.93;;;2.30;;
68484;SDS011;55472;50.060;21.960;2023-07-29T09:43:04;4.40;;;2.30;;
68484;SDS011;55472;50.060;21.960;2023-07-29T09:45:33;3.63;;;2.03;;
68484;SDS011;55472;50.060;21.960;2023-07-29T09:48:01;4.85;;;2.33;;
68484;SDS011;55472;50.060;21.960;2023-07-29T09:50:30;5.68;;;2.30;;
68484;SDS011;55472;50.060;21.960;2023-07-29T09:52:57;5.30;;;2.20;;
68484;SDS011;55472;50.060;21.960;2023-07-29T09:55:24;3.97;;;2.20;;
68484;SDS011;55472;50.060;21.960;2023-07-29T09:57:58;4.45;;;2.00;;
68484;SDS011;55472;50.060;21.960;2023-07-29T10:00:31;3.70;;;2.00;;
68484;SDS011;55472;50.060;21.960;2023-07-29T10:02:58;4.70;;;2.15;;
68484;SDS011;55472;50.060;21.960;2023-07-29T10:05:26;3.83;;;1.90;;
68484;SDS011;55472;50.060;21.960;2023-07-29T10:07:54;3.63;;;1.75;;
68484;SDS011;55472;50.060;21.960;2023-07-29T10:10:21;4.65;;;2.00;;
68484;SDS011;55472;50.060;21.960;2023-07-29T10:12:47;4.13;;;2.10;;
68484;SDS011;55472;50.060;21.960;2023-07-29T10:15:15;6.38;;;2.00;;
68484;SDS011;55472;50.060;21.960;2023-07-29T10:17:41;3.47;;;1.93;;
68484;SDS011;55472;50.060;21.960;2023-07-29T10:20:08;3.33;;;1.90;;
68484;SDS011;55472;50.060;21.960;2023-07-29T10:22:37;3.78;;;2.00;;
68484;SDS011;55472;50.060;21.960;2023-07-29T10:25:10;3.65;;;2.08;;
68484;SDS011;55472;50.060;21.960;2023-07-29T10:30:32;4.37;;;2.20;;
68484;SDS011;55472;50.060;21.960;2023-07-29T10:33:01;4.65;;;2.22;;
68484;SDS011;55472;50.060;21.960;2023-07-29T10:35:32;5.38;;;2.25;;
68484;SDS011;55472;50.060;21.960;2023-07-29T10:38:00;5.85;;;2.25;;
68484;SDS011;55472;50.060;21.960;2023-07-29T10:40:43;4.35;;;2.10;;
68484;SDS011;55472;50.060;21.960;2023-07-29T10:43:23;4.00;;;2.20;;
68484;SDS011;55472;50.060;21.960;2023-07-29T10:46:17;3.63;;;2.00;;
68484;SDS011;55472;50.060;21.960;2023-07-29T10:51:28;7.30;;;2.35;;
68484;SDS011;55472;50.060;21.960;2023-07-29T10:54:01;4.05;;;2.08;;
68484;SDS011;55472;50.060;21.960;2023-07-29T10:56:39;4.13;;;2.17;;
68484;SDS011;55472;50.060;21.960;2023-07-29T11:01:38;4.03;;;2.17;;
68484;SDS011;55472;50.060;21.960;2023-07-29T11:04:22;4.00;;;2.08;;
68484;SDS011;55472;50.060;21.960;2023-07-29T11:20:18;3.60;;;2.15;;
68484;SDS011;55472;50.060;21.960;2023-07-29T11:22:47;4.47;;;2.33;;
68484;SDS011;55472;50.060;21.960;2023-07-29T11:25:15;3.95;;;2.35;;
68484;SDS011;55472;50.060;21.960;2023-07-29T11:27:43;8.00;;;4.93;;
68484;SDS011;55472;50.060;21.960;2023-07-29T11:30:10;3.55;;;2.03;;
68484;SDS011;55472;50.060;21.960;2023-07-29T11:32:39;5.03;;;2.00;;
68484;SDS011;55472;50.060;21.960;2023-07-29T11:37:35;4.13;;;1.80;;
68484;SDS011;55472;50.060;21.960;2023-07-29T11:40:03;4.03;;;2.00;;
68484;SDS011;55472;50.060;21.960;2023-07-29T11:42:32;4.93;;;2.60;;
68484;SDS011;55472;50.060;21.960;2023-07-29T11:45:00;3.78;;;1.95;;
68484;SDS011;55472;50.060;21.960;2023-07-29T11:47:32;3.73;;;1.80;;
68484;SDS011;55472;50.060;21.960;2023-07-29T11:50:03;5.20;;;1.90;;
68484;SDS011;55472;50.060;21.960;2023-07-29T11:52:42;4.10;;;1.70;;
68484;SDS011;55472;50.060;21.960;2023-07-29T11:55:12;3.70;;;1.60;;
68484;SDS011;55472;50.060;21.960;2023-07-29T11:57:40;4.15;;;1.67;;
68484;SDS011;55472;50.060;21.960;2023-07-29T12:00:08;4.03;;;1.80;;
68484;SDS011;55472;50.060;21.960;2023-07-29T12:02:39;3.72;;;1.92;;
68484;SDS011;55472;50.060;21.960;2023-07-29T12:05:10;4.13;;;2.20;;
68484;SDS011;55472;50.060;21.960;2023-07-29T12:07:39;4.03;;;1.92;;
68484;SDS011;55472;50.060;21.960;2023-07-29T12:10:07;3.72;;;1.70;;
68484;SDS011;55472;50.060;21.960;2023-07-29T12:12:44;4.00;;;2.03;;
68484;SDS011;55472;50.060;21.960;2023-07-29T12:15:28;5.30;;;2.38;;
68484;SDS011;55472;50.060;21.960;2023-07-29T12:17:55;3.25;;;1.70;;
68484;SDS011;55472;50.060;21.960;2023-07-29T12:20:23;8.38;;;1.92;;
68484;SDS011;55472;50.060;21.960;2023-07-29T12:22:57;6.50;;;2.35;;
68484;SDS011;55472;50.060;21.960;2023-07-29T12:25:30;3.93;;;2.00;;
68484;SDS011;55472;50.060;21.960;2023-07-29T12:27:56;5.95;;;1.70;;
68484;SDS011;55472;50.060;21.960;2023-07-29T12:30:31;6.38;;;1.73;;
68484;SDS011;55472;50.060;21.960;2023-07-29T12:32:57;3.55;;;1.60;;
68484;SDS011;55472;50.060;21.960;2023-07-29T12:35:24;4.32;;;1.60;;
68484;SDS011;55472;50.060;21.960;2023-07-29T12:37:59;3.83;;;1.40;;
68484;SDS011;55472;50.060;21.960;2023-07-29T12:40:26;3.00;;;1.60;;
68484;SDS011;55472;50.060;21.960;2023-07-29T12:42:52;5.35;;;1.60;;
68484;SDS011;55472;50.060;21.960;2023-07-29T12:45:19;4.25;;;1.80;;
68484;SDS011;55472;50.060;21.960;2023-07-29T12:47:48;3.92;;;1.50;;
68484;SDS011;55472;50.060;21.960;2023-07-29T12:50:15;4.90;;;1.60;;
68484;SDS011;55472;50.060;21.960;2023-07-29T12:52:41;5.72;;;2.78;;
68484;SDS011;55472;50.060;21.960;2023-07-29T12:55:07;4.53;;;2.38;;
68484;SDS011;55472;50.060;21.960;2023-07-29T12:57:34;4.78;;;1.80;;
68484;SDS011;55472;50.060;21.960;2023-07-29T13:00:02;3.55;;;1.88;;
68484;SDS011;55472;50.060;21.960;2023-07-29T13:02:29;5.53;;;1.77;;
68484;SDS011;55472;50.060;21.960;2023-07-29T13:04:55;4.97;;;1.75;;
68484;SDS011;55472;50.060;21.960;2023-07-29T13:07:22;5.90;;;1.75;;
68484;SDS011;55472;50.060;21.960;2023-07-29T13:09:48;6.47;;;1.67;;
68484;SDS011;55472;50.060;21.960;2023-07-29T13:12:14;3.80;;;2.00;;
68484;SDS011;55472;50.060;21.960;2023-07-29T13:14:40;4.38;;;1.90;;
68484;SDS011;55472;50.060;21.960;2023-07-29T13:17:06;4.03;;;1.90;;
68484;SDS011;55472;50.060;21.960;2023-07-29T13:19:33;7.53;;;3.78;;
68484;SDS011;55472;50.060;21.960;2023-07-29T13:21:58;5.97;;;2.40;;
68484;SDS011;55472;50.060;21.960;2023-07-29T13:24:25;5.30;;;2.00;;
68484;SDS011;55472;50.060;21.960;2023-07-29T13:26:51;3.53;;;1.70;;
68484;SDS011;55472;50.060;21.960;2023-07-29T13:29:17;5.18;;;1.80;;
68484;SDS011;55472;50.060;21.960;2023-07-29T13:31:43;4.55;;;1.92;;
68484;SDS011;55472;50.060;21.960;2023-07-29T13:34:09;4.00;;;2.00;;
68484;SDS011;55472;50.060;21.960;2023-07-29T13:36:35;5.30;;;2.00;;
68484;SDS011;55472;50.060;21.960;2023-07-29T13:39:01;4.13;;;2.03;;
68484;SDS011;55472;50.060;21.960;2023-07-29T13:41:27;3.42;;;1.90;;
68484;SDS011;55472;50.060;21.960;2023-07-29T13:43:53;5.05;;;2.00;;
68484;SDS011;55472;50.060;21.960;2023-07-29T13:46:19;4.80;;;1.95;;
68484;SDS011;55472;50.060;21.960;2023-07-29T13:48:46;5.67;;;2.53;;
68484;SDS011;55472;50.060;21.960;2023-07-29T13:51:12;5.05;;;2.42;;
68484;SDS011;55472;50.060;21.960;2023-07-29T13:53:39;4.88;;;2.80;;
68484;SDS011;55472;50.060;21.960;2023-07-29T13:56:05;5.93;;;2.60;;
68484;SDS011;55472;50.060;21.960;2023-07-29T13:58:39;5.18;;;2.60;;
68484;SDS011;55472;50.060;21.960;2023-07-29T14:01:20;6.30;;;3.30;;
68484;SDS011;55472;50.060;21.960;2023-07-29T14:04:28;7.20;;;4.38;;
68484;SDS011;55472;50.060;21.960;2023-07-29T14:07:04;5.65;;;3.78;;
68484;SDS011;55472;50.060;21.960;2023-07-29T14:09:30;5.68;;;3.58;;
68484;SDS011;55472;50.060;21.960;2023-07-29T14:12:11;6.20;;;4.00;;
68484;SDS011;55472;50.060;21.960;2023-07-29T14:14:38;4.83;;;3.00;;
68484;SDS011;55472;50.060;21.960;2023-07-29T14:17:05;6.03;;;2.83;;
68484;SDS011;55472;50.060;21.960;2023-07-29T14:19:31;6.75;;;3.42;;
68484;SDS011;55472;50.060;21.960;2023-07-29T14:21:57;6.43;;;3.70;;
68484;SDS011;55472;50.060;21.960;2023-07-29T14:24:23;6.65;;;3.30;;
68484;SDS011;55472;50.060;21.960;2023-07-29T14:27:07;5.33;;;3.10;;
68484;SDS011;55472;50.060;21.960;2023-07-29T14:29:36;5.15;;;2.80;;
68484;SDS011;55472;50.060;21.960;2023-07-29T14:32:08;6.70;;;2.70;;
68484;SDS011;55472;50.060;21.960;2023-07-29T14:34:35;6.25;;;2.90;;
68484;SDS011;55472;50.060;21.960;2023-07-29T14:37:11;6.90;;;3.03;;
68484;SDS011;55472;50.060;21.960;2023-07-29T14:39:40;6.97;;;2.67;;
68484;SDS011;55472;50.060;21.960;2023-07-29T14:42:06;4.70;;;2.90;;
68484;SDS011;55472;50.060;21.960;2023-07-29T14:44:33;6.20;;;2.72;;
68484;SDS011;55472;50.060;21.960;2023-07-29T14:46:59;5.53;;;2.78;;
68484;SDS011;55472;50.060;21.960;2023-07-29T14:49:25;5.47;;;2.95;;
68484;SDS011;55472;50.060;21.960;2023-07-29T14:51:52;5.93;;;3.00;;
68484;SDS011;55472;50.060;21.960;2023-07-29T14:54:18;5.82;;;3.00;;
68484;SDS011;55472;50.060;21.960;2023-07-29T14:56:48;5.65;;;3.22;;
68484;SDS011;55472;50.060;21.960;2023-07-29T14:59:20;10.57;;;3.17;;
68484;SDS011;55472;50.060;21.960;2023-07-29T15:01:46;10.85;;;4.45;;
68484;SDS011;55472;50.060;21.960;2023-07-29T15:04:12;7.93;;;4.20;;
68484;SDS011;55472;50.060;21.960;2023-07-29T15:06:41;6.30;;;2.97;;